createdAt,value
2023-01-24T00:01:42.668Z,12.57
2023-01-24T00:04:09.394Z,12.88
2023-01-24T00:06:36.206Z,12.77
2023-01-24T00:09:02.965Z,11.65
2023-01-24T00:11:29.691Z,13.70
2023-01-24T00:13:56.356Z,13.07
2023-01-24T00:16:23.370Z,12.15
2023-01-24T00:18:50.664Z,12.32
2023-01-24T00:21:20.997Z,12.02
2023-01-24T00:26:17.563Z,10.70
2023-01-24T00:28:45.110Z,12.00
2023-01-24T00:31:12.277Z,11.68
2023-01-24T00:33:39.103Z,12.23
2023-01-24T00:36:06.519Z,11.95
2023-01-24T00:38:33.799Z,13.05
2023-01-24T00:41:01.019Z,12.80
2023-01-24T00:43:28.059Z,12.93
2023-01-24T00:45:55.460Z,12.93
2023-01-24T00:48:22.962Z,11.85
2023-01-24T00:50:49.994Z,13.05
2023-01-24T00:53:17.204Z,12.98
2023-01-24T00:55:45.798Z,13.15
2023-01-24T00:58:13.231Z,12.55
2023-01-24T01:00:40.727Z,13.02
2023-01-24T01:03:10.822Z,12.95
2023-01-24T01:05:37.576Z,12.50
2023-01-24T01:08:04.588Z,12.20
2023-01-24T01:10:31.626Z,13.10
2023-01-24T01:12:58.482Z,12.63
2023-01-24T01:15:25.277Z,12.82
2023-01-24T01:17:51.958Z,12.73
2023-01-24T01:20:18.830Z,12.88
2023-01-24T01:22:45.627Z,12.70
2023-01-24T01:25:12.489Z,13.10
2023-01-24T01:27:39.205Z,13.48
2023-01-24T01:30:06.638Z,12.30
2023-01-24T01:32:33.570Z,13.07
2023-01-24T01:35:00.293Z,12.20
2023-01-24T01:37:27.055Z,12.43
2023-01-24T01:39:53.754Z,12.45
2023-01-24T01:42:20.416Z,12.75
2023-01-24T01:44:49.197Z,13.25
2023-01-24T01:47:21.810Z,14.18
2023-01-24T01:50:00.635Z,13.20
2023-01-24T01:52:30.526Z,13.68
2023-01-24T01:55:03.113Z,14.68
2023-01-24T01:57:32.784Z,13.88
2023-01-24T02:00:10.645Z,14.70
2023-01-24T02:02:39.502Z,12.80
2023-01-24T02:05:09.011Z,13.18
2023-01-24T02:07:51.055Z,13.13
2023-01-24T02:10:20.507Z,13.77
2023-01-24T02:12:49.068Z,13.67
2023-01-24T02:15:38.841Z,12.82
2023-01-24T02:18:07.635Z,13.25
2023-01-24T02:20:39.564Z,12.52
2023-01-24T02:23:39.378Z,13.82
2023-01-24T02:26:22.638Z,12.95
2023-01-24T02:29:12.030Z,13.13
2023-01-24T02:31:57.556Z,11.98
2023-01-24T02:34:25.704Z,12.93
2023-01-24T02:36:55.995Z,11.93
2023-01-24T02:39:32.091Z,13.10
2023-01-24T02:42:05.315Z,12.10
2023-01-24T02:45:00.189Z,12.35
2023-01-24T02:47:33.495Z,12.02
2023-01-24T02:50:01.192Z,12.00
2023-01-24T02:52:46.876Z,12.10
2023-01-24T02:55:13.793Z,11.73
2023-01-24T02:57:59.378Z,11.35
2023-01-24T03:00:26.166Z,11.52
2023-01-24T03:02:53.149Z,12.30
2023-01-24T03:05:20.371Z,11.63
2023-01-24T03:07:47.276Z,11.70
2023-01-24T03:10:18.996Z,12.45
2023-01-24T03:13:04.426Z,11.00
2023-01-24T03:15:49.911Z,10.52
2023-01-24T03:18:35.317Z,11.63
2023-01-24T03:21:20.677Z,11.82
2023-01-24T03:24:06.039Z,12.05
2023-01-24T03:26:51.565Z,12.32
2023-01-24T03:29:36.970Z,11.95
2023-01-24T03:32:22.572Z,12.77
2023-01-24T03:34:52.227Z,11.77
2023-01-24T03:37:39.855Z,11.50
2023-01-24T03:40:10.325Z,11.95
2023-01-24T03:45:21.058Z,11.02
2023-01-24T03:47:55.848Z,11.90
2023-01-24T03:50:55.922Z,11.55
2023-01-24T03:53:24.877Z,10.73
2023-01-24T03:55:59.326Z,10.85
2023-01-24T03:58:27.933Z,11.80
2023-01-24T04:00:55.037Z,11.55
2023-01-24T04:03:21.761Z,11.20
2023-01-24T04:05:49.103Z,11.23
2023-01-24T04:08:16.631Z,11.68
2023-01-24T04:10:43.392Z,11.13
2023-01-24T04:13:11.029Z,11.52
2023-01-24T04:15:38.654Z,11.25
2023-01-24T04:18:06.637Z,11.32
2023-01-24T04:20:36.628Z,11.30
2023-01-24T04:23:08.259Z,11.75
2023-01-24T04:25:35.340Z,11.45
2023-01-24T04:28:02.937Z,11.80
2023-01-24T04:30:29.856Z,12.65
2023-01-24T04:32:56.596Z,11.48
2023-01-24T04:35:26.108Z,11.90
2023-01-24T04:37:53.401Z,11.27
2023-01-24T04:40:20.087Z,12.95
2023-01-24T04:42:46.743Z,12.15
2023-01-24T04:45:13.534Z,12.20
2023-01-24T04:47:40.513Z,11.95
2023-01-24T04:50:08.160Z,12.48
2023-01-24T04:52:34.874Z,13.00
2023-01-24T04:55:01.731Z,13.10
2023-01-24T04:57:28.405Z,12.40
2023-01-24T04:59:55.191Z,12.10
2023-01-24T05:02:21.931Z,13.90
2023-01-24T05:04:48.667Z,12.43
2023-01-24T05:07:15.432Z,13.85
2023-01-24T05:09:42.154Z,13.90
2023-01-24T05:12:08.907Z,14.10
2023-01-24T05:14:35.667Z,13.73
2023-01-24T05:17:02.536Z,13.85
2023-01-24T05:19:30.991Z,13.38
2023-01-24T05:21:58.042Z,13.63
2023-01-24T05:24:24.743Z,13.55
2023-01-24T05:26:51.497Z,13.18
2023-01-24T05:29:18.253Z,14.25
2023-01-24T05:31:45.149Z,14.10
2023-01-24T05:34:11.906Z,13.35
2023-01-24T05:36:38.594Z,13.57
2023-01-24T05:39:05.278Z,13.98
2023-01-24T05:41:31.971Z,14.48
2023-01-24T05:43:58.672Z,14.10
2023-01-24T05:46:25.483Z,13.38
2023-01-24T05:48:52.289Z,14.30
2023-01-24T05:51:22.511Z,14.98
2023-01-24T05:53:49.551Z,14.50
2023-01-24T05:56:19.400Z,13.80
2023-01-24T05:58:47.136Z,13.60
2023-01-24T06:01:19.502Z,14.38
2023-01-24T06:03:49.025Z,14.60
2023-01-24T06:06:17.601Z,15.00
2023-01-24T06:08:44.900Z,14.95
2023-01-24T06:11:27.198Z,15.38
2023-01-24T06:13:55.928Z,15.48
2023-01-24T06:16:25.091Z,15.32
2023-01-24T06:18:53.432Z,15.35
2023-01-24T06:21:47.538Z,15.07
2023-01-24T06:24:23.027Z,15.75
2023-01-24T06:26:50.543Z,15.30
2023-01-24T06:29:18.740Z,14.82
2023-01-24T06:31:45.418Z,14.90
2023-01-24T06:34:25.723Z,15.00
2023-01-24T06:37:01.262Z,15.75
2023-01-24T06:39:28.296Z,15.88
2023-01-24T06:41:55.305Z,15.63
2023-01-24T06:44:22.409Z,16.08
2023-01-24T06:46:49.210Z,14.77
2023-01-24T06:49:16.187Z,15.68
2023-01-24T06:51:42.915Z,15.15
2023-01-24T06:54:09.599Z,15.38
2023-01-24T06:56:36.339Z,16.08
2023-01-24T06:59:03.429Z,15.30
2023-01-24T07:01:30.187Z,14.98
2023-01-24T07:03:56.856Z,15.40
2023-01-24T07:06:24.259Z,15.88
2023-01-24T07:08:51.087Z,16.83
2023-01-24T07:11:17.934Z,15.18
2023-01-24T07:13:44.738Z,15.90
2023-01-24T07:16:11.709Z,15.20
2023-01-24T07:18:38.806Z,14.20
2023-01-24T07:21:07.308Z,15.45
2023-01-24T07:23:35.491Z,15.73
2023-01-24T07:26:04.303Z,16.23
2023-01-24T07:28:31.268Z,15.90
2023-01-24T07:30:58.018Z,16.55
2023-01-24T07:33:24.749Z,15.85
2023-01-24T07:35:51.539Z,16.20
2023-01-24T07:38:18.237Z,15.63
2023-01-24T07:40:44.997Z,15.82
2023-01-24T07:43:11.878Z,16.13
2023-01-24T07:45:39.521Z,15.38
2023-01-24T07:48:09.408Z,17.63
2023-01-24T07:50:36.697Z,16.52
2023-01-24T07:53:03.866Z,15.98
2023-01-24T07:55:30.615Z,16.98
2023-01-24T07:58:02.175Z,16.25
2023-01-24T08:00:30.184Z,16.60
2023-01-24T08:02:56.905Z,16.73
2023-01-24T08:05:23.811Z,16.95
2023-01-24T08:07:50.741Z,16.65
2023-01-24T08:10:17.626Z,16.85
2023-01-24T08:12:44.411Z,17.15
2023-01-24T08:15:11.594Z,16.85
2023-01-24T08:17:39.229Z,17.20
2023-01-24T08:20:07.284Z,16.48
2023-01-24T08:22:34.065Z,15.88
2023-01-24T08:25:00.880Z,15.30
2023-01-24T08:27:27.663Z,16.52
2023-01-24T08:29:54.344Z,15.93
2023-01-24T08:32:21.288Z,15.27
2023-01-24T08:34:48.186Z,15.55
2023-01-24T08:37:15.154Z,16.30
2023-01-24T08:39:41.935Z,16.10
2023-01-24T08:42:09.820Z,16.27
2023-01-24T08:44:36.548Z,15.32
2023-01-24T08:47:03.332Z,15.73
2023-01-24T08:49:30.058Z,14.48
2023-01-24T08:51:59.983Z,15.70
2023-01-24T08:54:28.947Z,14.75
2023-01-24T08:56:56.175Z,13.57
2023-01-24T08:59:23.543Z,14.35
2023-01-24T09:01:50.304Z,14.95
2023-01-24T09:04:17.049Z,14.85
2023-01-24T09:06:43.878Z,14.35
2023-01-24T09:09:10.691Z,13.73
2023-01-24T09:11:37.590Z,14.90
2023-01-24T09:14:04.369Z,13.88
2023-01-24T09:16:31.091Z,14.50
2023-01-24T09:18:57.892Z,14.27
2023-01-24T09:21:24.717Z,13.77
2023-01-24T09:23:53.845Z,14.93
2023-01-24T09:26:20.818Z,14.02
2023-01-24T09:28:47.566Z,14.75
2023-01-24T09:31:14.380Z,14.40
2023-01-24T09:33:53.955Z,13.73
2023-01-24T09:36:25.120Z,13.63
2023-01-24T09:39:04.380Z,14.20
2023-01-24T09:41:57.768Z,15.48
2023-01-24T09:44:47.890Z,13.45
2023-01-24T09:47:43.374Z,14.95
2023-01-24T09:50:18.033Z,14.20
2023-01-24T09:52:47.619Z,15.75
2023-01-24T09:55:25.087Z,16.50
2023-01-24T09:58:00.492Z,14.38
2023-01-24T10:00:33.530Z,15.65
2023-01-24T10:03:01.664Z,15.30
2023-01-24T10:05:59.891Z,14.30
2023-01-24T10:08:45.868Z,14.10
2023-01-24T10:11:24.524Z,15.10
2023-01-24T10:13:54.435Z,14.73
2023-01-24T10:16:58.450Z,15.63
2023-01-24T10:19:46.171Z,13.90
2023-01-24T10:22:31.899Z,14.23
2023-01-24T10:25:17.766Z,14.15
2023-01-24T10:27:48.029Z,14.93
2023-01-24T10:30:28.598Z,15.00
2023-01-24T10:33:02.301Z,14.00
2023-01-24T10:35:54.920Z,14.98
2023-01-24T10:38:21.818Z,14.50
2023-01-24T10:41:10.581Z,13.32
2023-01-24T10:43:39.573Z,13.77
2023-01-24T10:46:56.984Z,15.48
2023-01-24T10:50:00.196Z,13.10
2023-01-24T10:52:27.605Z,13.38
2023-01-24T10:54:58.543Z,14.52
2023-01-24T10:57:43.055Z,14.52
2023-01-24T11:00:15.633Z,15.30
2023-01-24T11:02:46.009Z,13.23
2023-01-24T11:07:52.963Z,13.88
2023-01-24T11:10:36.255Z,13.57
2023-01-24T11:13:06.404Z,14.07
2023-01-24T11:15:34.957Z,13.63
2023-01-24T11:18:19.887Z,13.27
2023-01-24T11:20:47.529Z,12.93
2023-01-24T11:23:19.800Z,14.65
2023-01-24T11:25:52.692Z,13.98
2023-01-24T11:28:30.884Z,14.45
2023-01-24T11:31:02.471Z,13.93
2023-01-24T11:34:02.371Z,14.32
2023-01-24T11:36:35.180Z,13.63
2023-01-24T11:39:29.142Z,12.98
2023-01-24T11:42:14.882Z,14.32
2023-01-24T11:45:11.390Z,13.40
2023-01-24T11:47:47.787Z,13.05
2023-01-24T11:50:38.615Z,12.98
2023-01-24T11:53:14.020Z,12.65
2023-01-24T11:56:05.102Z,13.73
2023-01-24T11:58:55.886Z,12.75
2023-01-24T12:02:13.916Z,13.43
2023-01-24T12:04:57.158Z,13.30
2023-01-24T12:07:37.163Z,13.98
2023-01-24T12:10:28.193Z,12.88
2023-01-24T12:13:15.620Z,13.55
2023-01-24T12:15:58.951Z,12.10
2023-01-24T12:18:47.631Z,13.50
2023-01-24T12:21:14.448Z,12.98
2023-01-24T12:24:20.312Z,14.13
2023-01-24T12:26:54.481Z,12.68
2023-01-24T12:29:51.081Z,13.57
2023-01-24T12:32:35.854Z,13.27
2023-01-24T12:35:21.369Z,13.45
2023-01-24T12:38:15.792Z,13.57
2023-01-24T12:41:05.536Z,13.10
2023-01-24T12:43:47.074Z,12.95
2023-01-24T12:46:40.616Z,12.90
2023-01-24T12:49:32.696Z,12.82
2023-01-24T12:52:15.633Z,13.52
2023-01-24T12:54:50.669Z,13.35
2023-01-24T12:57:27.818Z,12.98
2023-01-24T12:59:54.529Z,13.70
2023-01-24T13:02:30.079Z,14.05
2023-01-24T13:05:05.635Z,12.93
2023-01-24T13:07:56.340Z,13.65
2023-01-24T13:10:40.378Z,13.20
2023-01-24T13:13:21.229Z,14.27
2023-01-24T13:16:03.360Z,13.48
2023-01-24T13:18:43.207Z,14.10
2023-01-24T13:21:23.204Z,13.70
2023-01-24T13:24:02.236Z,15.85
2023-01-24T13:26:46.061Z,13.85
2023-01-24T13:29:33.554Z,14.30
2023-01-24T13:32:18.666Z,14.27
2023-01-24T13:34:57.257Z,14.70
2023-01-24T13:37:29.822Z,14.18
2023-01-24T13:40:06.988Z,14.57
2023-01-24T13:42:36.833Z,14.43
2023-01-24T13:45:26.560Z,14.18
2023-01-24T13:47:58.611Z,14.13
2023-01-24T13:50:29.904Z,13.88
2023-01-24T13:52:58.080Z,13.90
2023-01-24T13:55:24.788Z,13.18
2023-01-24T13:58:14.246Z,14.27
2023-01-24T14:00:51.207Z,13.18
2023-01-24T14:03:28.454Z,14.20
2023-01-24T14:06:04.539Z,14.77
2023-01-24T14:08:31.185Z,13.75
2023-01-24T14:10:57.839Z,14.18
2023-01-24T14:13:44.083Z,14.43
2023-01-24T14:16:14.758Z,14.57
2023-01-24T14:18:50.438Z,14.27
2023-01-24T14:21:26.060Z,13.48
2023-01-24T14:23:58.540Z,13.77
2023-01-24T14:26:31.265Z,15.27
2023-01-24T14:29:03.089Z,14.88
2023-01-24T14:31:40.861Z,15.02
2023-01-24T14:34:40.268Z,15.43
2023-01-24T14:37:11.606Z,14.30
2023-01-24T14:39:39.080Z,14.25
2023-01-24T14:42:14.775Z,13.45
2023-01-24T14:44:55.428Z,14.10
2023-01-24T14:47:29.452Z,13.57
2023-01-24T14:49:58.561Z,15.82
2023-01-24T14:52:28.004Z,15.65
2023-01-24T14:55:22.373Z,14.13
2023-01-24T14:57:49.046Z,13.52
2023-01-24T15:00:18.326Z,13.45
2023-01-24T15:02:55.309Z,13.95
2023-01-24T15:05:28.468Z,14.68
2023-01-24T15:07:55.708Z,14.50
2023-01-24T15:10:34.137Z,13.88
2023-01-24T15:13:03.515Z,13.75
2023-01-24T15:15:30.830Z,13.77
2023-01-24T15:18:03.618Z,14.95
2023-01-24T15:20:31.242Z,14.80
2023-01-24T15:23:00.520Z,14.98
2023-01-24T15:25:35.024Z,13.85
2023-01-24T15:28:27.309Z,14.98
2023-01-24T15:31:02.115Z,14.27
2023-01-24T15:33:45.011Z,14.48
2023-01-24T15:36:32.799Z,13.60
2023-01-24T15:39:02.237Z,15.02
2023-01-24T15:41:54.333Z,14.65
2023-01-24T15:44:21.435Z,14.43
2023-01-24T15:47:14.706Z,15.55
2023-01-24T15:50:01.369Z,14.82
2023-01-24T15:52:28.398Z,13.82
2023-01-24T15:55:01.477Z,14.05
2023-01-24T15:57:31.804Z,13.63
2023-01-24T16:00:13.161Z,14.65
2023-01-24T16:02:40.339Z,14.27
2023-01-24T16:05:19.891Z,13.45
2023-01-24T16:07:46.824Z,13.60
2023-01-24T16:10:14.838Z,13.20
2023-01-24T16:12:42.686Z,13.13
2023-01-24T16:15:20.837Z,13.45
2023-01-24T16:17:47.697Z,13.15
2023-01-24T16:20:21.861Z,12.90
2023-01-24T16:22:49.243Z,13.30
2023-01-24T16:25:17.399Z,13.13
2023-01-24T16:27:44.697Z,12.65
2023-01-24T16:30:15.869Z,13.23
2023-01-24T16:32:42.864Z,12.90
2023-01-24T16:35:09.894Z,13.75
2023-01-24T16:37:36.744Z,13.10
2023-01-24T16:40:04.107Z,12.82
2023-01-24T16:42:31.223Z,13.07
2023-01-24T16:45:01.455Z,13.20
2023-01-24T16:47:29.170Z,12.95
2023-01-24T16:49:57.292Z,12.38
2023-01-24T16:52:26.780Z,12.68
2023-01-24T16:54:53.810Z,12.93
2023-01-24T16:57:20.869Z,12.57
2023-01-24T16:59:48.361Z,13.57
2023-01-24T17:02:15.663Z,13.13
2023-01-24T17:04:42.458Z,13.25
2023-01-24T17:07:09.244Z,12.85
2023-01-24T17:09:36.096Z,12.90
2023-01-24T17:12:13.619Z,14.68
2023-01-24T17:14:41.998Z,13.48
2023-01-24T17:17:09.158Z,14.43
2023-01-24T17:19:37.889Z,14.20
2023-01-24T17:22:06.256Z,13.90
2023-01-24T17:24:33.327Z,14.10
2023-01-24T17:27:00.272Z,14.07
2023-01-24T17:29:28.488Z,13.80
2023-01-24T17:31:56.890Z,13.48
2023-01-24T17:34:24.122Z,14.27
2023-01-24T17:36:51.298Z,13.98
2023-01-24T17:39:18.069Z,13.38
2023-01-24T17:41:44.891Z,14.38
2023-01-24T17:44:13.166Z,14.23
2023-01-24T17:46:40.116Z,14.48
2023-01-24T17:49:06.975Z,14.25
2023-01-24T17:51:36.984Z,13.98
2023-01-24T17:54:06.856Z,14.55
2023-01-24T17:56:33.742Z,13.75
2023-01-24T17:59:00.560Z,14.18
2023-01-24T18:01:27.296Z,14.55
2023-01-24T18:03:54.070Z,13.57
2023-01-24T18:06:20.957Z,14.35
2023-01-24T18:08:47.944Z,14.23
2023-01-24T18:11:17.141Z,14.85
2023-01-24T18:13:44.263Z,14.77
2023-01-24T18:16:14.347Z,14.00
2023-01-24T18:18:42.033Z,13.23
2023-01-24T18:21:18.087Z,14.25
2023-01-24T18:23:57.091Z,14.70
2023-01-24T18:26:25.115Z,13.63
2023-01-24T18:28:51.921Z,15.48
2023-01-24T18:31:19.059Z,14.63
2023-01-24T18:33:45.825Z,14.20
2023-01-24T18:36:15.154Z,15.10
2023-01-24T18:38:42.008Z,15.05
2023-01-24T18:41:08.813Z,13.68
2023-01-24T18:43:37.301Z,14.57
2023-01-24T18:46:09.638Z,14.57
2023-01-24T18:48:38.329Z,13.85
2023-01-24T18:51:14.320Z,14.50
2023-01-24T18:53:41.808Z,15.50
2023-01-24T18:56:08.829Z,15.00
2023-01-24T18:58:37.034Z,15.60
2023-01-24T19:03:44.628Z,14.90
2023-01-24T19:06:12.410Z,16.35
2023-01-24T19:08:56.527Z,16.02
2023-01-24T19:11:28.374Z,14.65
2023-01-24T19:13:55.556Z,15.45
2023-01-24T19:16:23.466Z,15.02
2023-01-24T19:18:51.603Z,15.63
2023-01-24T19:21:19.870Z,15.90
2023-01-24T19:23:48.093Z,14.25
2023-01-24T19:26:17.007Z,14.50
2023-01-24T19:28:44.320Z,15.63
2023-01-24T19:31:11.507Z,15.13
2023-01-24T19:33:38.310Z,15.45
2023-01-24T19:36:07.271Z,15.98
2023-01-24T19:38:34.721Z,15.60
2023-01-24T19:41:06.475Z,14.55
2023-01-24T19:43:37.244Z,14.52
2023-01-24T19:46:12.381Z,15.38
2023-01-24T19:48:40.246Z,15.35
2023-01-24T19:51:09.965Z,14.32
2023-01-24T19:53:37.755Z,13.95
2023-01-24T19:56:07.131Z,15.38
2023-01-24T19:58:34.940Z,15.10
2023-01-24T20:01:06.615Z,15.07
2023-01-24T20:03:34.800Z,14.80
2023-01-24T20:06:09.331Z,15.32
2023-01-24T20:08:36.218Z,15.40
2023-01-24T20:11:09.676Z,15.40
2023-01-24T20:13:36.473Z,15.68
2023-01-24T20:16:05.812Z,15.82
2023-01-24T20:18:32.922Z,16.05
2023-01-24T20:20:59.657Z,16.33
2023-01-24T20:23:26.518Z,15.60
2023-01-24T20:25:53.262Z,16.13
2023-01-24T20:28:20.018Z,15.88
2023-01-24T20:30:46.756Z,16.10
2023-01-24T20:33:14.402Z,15.52
2023-01-24T20:35:41.235Z,15.70
2023-01-24T20:38:08.723Z,15.75
2023-01-24T20:40:35.476Z,15.30
2023-01-24T20:43:02.146Z,15.43
2023-01-24T20:45:29.139Z,15.55
2023-01-24T20:47:55.905Z,15.70
2023-01-24T20:50:22.634Z,15.48
2023-01-24T20:52:49.313Z,16.50
2023-01-24T20:55:16.106Z,16.75
2023-01-24T20:57:42.775Z,17.85
2023-01-24T21:00:10.179Z,16.73
2023-01-24T21:02:36.919Z,16.23
2023-01-24T21:05:03.784Z,17.00
2023-01-24T21:07:30.541Z,17.13
2023-01-24T21:09:57.202Z,17.85
2023-01-24T21:12:23.921Z,16.95
2023-01-24T21:14:50.592Z,15.95
2023-01-24T21:17:17.603Z,16.70
2023-01-24T21:19:44.433Z,17.48
2023-01-24T21:22:11.200Z,16.42
2023-01-24T21:24:38.433Z,16.23
2023-01-24T21:27:05.593Z,16.88
2023-01-24T21:29:32.590Z,15.30
2023-01-24T21:31:59.610Z,15.35
2023-01-24T21:34:26.769Z,15.73
2023-01-24T21:36:53.523Z,16.05
2023-01-24T21:39:20.391Z,15.70
2023-01-24T21:41:56.386Z,16.45
2023-01-24T21:44:25.416Z,17.15
2023-01-24T21:46:52.404Z,15.30
2023-01-24T21:49:19.149Z,16.02
2023-01-24T21:51:48.549Z,16.08
2023-01-24T21:54:33.293Z,14.87
2023-01-24T21:57:33.213Z,14.90
2023-01-24T22:00:02.216Z,15.90
2023-01-24T22:02:30.892Z,15.40
2023-01-24T22:04:58.687Z,14.23
2023-01-24T22:07:27.813Z,16.08
2023-01-24T22:09:57.921Z,16.30
2023-01-24T22:12:24.832Z,15.98
2023-01-24T22:14:52.260Z,15.55
2023-01-24T22:17:21.457Z,15.90
2023-01-24T22:19:51.091Z,15.85
2023-01-24T22:22:26.739Z,16.50
2023-01-24T22:25:15.368Z,15.13
2023-01-24T22:27:42.437Z,16.40
2023-01-24T22:30:17.035Z,15.52
2023-01-24T22:32:44.645Z,16.60
2023-01-24T22:35:23.674Z,15.82
2023-01-24T22:37:54.378Z,15.48
2023-01-24T22:40:21.895Z,14.90
2023-01-24T22:42:50.325Z,16.85
2023-01-24T22:45:18.292Z,17.00
2023-01-24T22:47:45.063Z,16.63
2023-01-24T22:50:11.840Z,15.35
2023-01-24T22:52:39.546Z,16.65
2023-01-24T22:55:07.596Z,16.02
2023-01-24T22:57:34.535Z,15.77
2023-01-24T23:00:02.550Z,16.48
2023-01-24T23:02:30.274Z,16.08
2023-01-24T23:04:57.115Z,16.60
2023-01-24T23:07:23.893Z,16.60
2023-01-24T23:09:50.654Z,17.15
2023-01-24T23:12:36.838Z,15.73
2023-01-24T23:15:22.720Z,16.60
2023-01-24T23:17:52.267Z,17.27
2023-01-24T23:20:37.679Z,16.02
2023-01-24T23:23:04.417Z,16.77
2023-01-24T23:25:31.211Z,15.88
2023-01-24T23:27:57.948Z,17.42
2023-01-24T23:30:41.039Z,16.77
2023-01-24T23:33:34.758Z,17.25
2023-01-24T23:36:02.232Z,15.73
2023-01-24T23:38:30.107Z,17.33
2023-01-24T23:40:56.905Z,15.52
2023-01-24T23:43:23.679Z,16.33
2023-01-24T23:45:50.748Z,15.82
2023-01-24T23:48:17.535Z,17.00
2023-01-24T23:50:44.302Z,17.50
2023-01-24T23:53:11.050Z,16.23
2023-01-24T23:55:37.882Z,16.77
2023-01-24T23:58:04.705Z,17.30
